createdAt,value
2023-09-25T00:02:23.864Z,101641.00
2023-09-25T00:04:58.242Z,101640.40
2023-09-25T00:07:33.422Z,101644.40
2023-09-25T00:10:09.825Z,101639.80
2023-09-25T00:12:45.568Z,101642.20
2023-09-25T00:15:20.701Z,101632.60
2023-09-25T00:17:55.450Z,101629.80
2023-09-25T00:20:30.405Z,101626.00
2023-09-25T00:23:04.863Z,101623.80
2023-09-25T00:25:39.586Z,101622.20
2023-09-25T00:28:14.131Z,101630.40
2023-09-25T00:30:48.745Z,101633.40
2023-09-25T00:33:23.723Z,101631.60
2023-09-25T00:35:58.549Z,101627.80
2023-09-25T00:38:33.204Z,101624.20
2023-09-25T00:41:07.958Z,101622.80
2023-09-25T00:43:42.899Z,101617.00
2023-09-25T00:46:18.399Z,101612.80
2023-09-25T00:48:53.370Z,101605.00
2023-09-25T00:51:28.305Z,101603.80
2023-09-25T00:54:03.783Z,101603.40
2023-09-25T00:56:39.891Z,101608.60
2023-09-25T00:59:15.064Z,101607.40
2023-09-25T01:01:49.854Z,101608.80
2023-09-25T01:04:26.088Z,101613.80
2023-09-25T01:07:00.843Z,101611.80
2023-09-25T01:09:36.439Z,101610.80
2023-09-25T01:12:11.915Z,101609.80
2023-09-25T01:14:46.486Z,101617.20
2023-09-25T01:17:21.997Z,101618.80
2023-09-25T01:19:57.329Z,101623.00
2023-09-25T01:22:31.468Z,101624.60
2023-09-25T01:25:07.575Z,101627.00
2023-09-25T01:27:43.675Z,101632.20
2023-09-25T01:30:20.404Z,101637.00
2023-09-25T01:32:55.190Z,101633.20
2023-09-25T01:35:29.943Z,101631.60
2023-09-25T01:38:06.154Z,101632.40
2023-09-25T01:40:40.814Z,101629.60
2023-09-25T01:43:15.366Z,101634.60
2023-09-25T01:45:50.152Z,101623.00
2023-09-25T01:48:25.672Z,101612.20
2023-09-25T01:51:00.252Z,101604.20
2023-09-25T01:53:35.310Z,101604.20
2023-09-25T01:56:17.202Z,101601.40
2023-09-25T01:58:51.794Z,101610.40
2023-09-25T02:01:26.607Z,101605.60
2023-09-25T02:04:01.217Z,101604.20
2023-09-25T02:06:36.343Z,101603.20
2023-09-25T02:09:11.902Z,101601.00
2023-09-25T02:11:46.558Z,101596.00
2023-09-25T02:14:21.375Z,101592.40
2023-09-25T02:16:55.922Z,101583.40
2023-09-25T02:19:30.408Z,101583.80
2023-09-25T02:22:07.858Z,101583.80
2023-09-25T02:24:42.523Z,101580.40
2023-09-25T02:27:19.047Z,101580.60
2023-09-25T02:29:53.824Z,101571.00
2023-09-25T02:32:28.935Z,101568.20
2023-09-25T02:35:03.517Z,101564.40
2023-09-25T02:37:39.139Z,101566.60
2023-09-25T02:40:16.491Z,101558.60
2023-09-25T02:42:54.653Z,101555.60
2023-09-25T02:45:29.166Z,101550.20
2023-09-25T02:48:03.980Z,101551.00
2023-09-25T02:50:38.586Z,101549.80
2023-09-25T02:53:13.721Z,101545.80
2023-09-25T02:55:53.166Z,101545.00
2023-09-25T02:58:30.259Z,101545.40
2023-09-25T03:01:04.950Z,101549.20
2023-09-25T03:03:41.436Z,101542.00
2023-09-25T03:06:15.722Z,101531.40
2023-09-25T03:08:50.335Z,101524.00
2023-09-25T03:11:25.332Z,101525.40
2023-09-25T03:13:59.745Z,101527.00
2023-09-25T03:16:34.238Z,101521.40
2023-09-25T03:19:08.644Z,101520.60
2023-09-25T03:21:44.417Z,101517.60
2023-09-25T03:24:18.929Z,101522.00
2023-09-25T03:26:56.041Z,101519.80
2023-09-25T03:29:30.793Z,101516.40
2023-09-25T03:32:05.006Z,101515.80
2023-09-25T03:34:39.946Z,101515.80
2023-09-25T03:37:14.306Z,101519.00
2023-09-25T03:39:48.684Z,101512.80
2023-09-25T03:42:23.360Z,101516.20
2023-09-25T03:44:57.985Z,101520.00
2023-09-25T03:47:32.441Z,101520.80
2023-09-25T03:50:07.603Z,101526.20
2023-09-25T03:52:41.958Z,101524.00
2023-09-25T03:55:16.622Z,101524.40
2023-09-25T03:57:51.244Z,101531.00
2023-09-25T04:00:28.255Z,101532.00
2023-09-25T04:03:02.966Z,101529.00
2023-09-25T04:05:38.082Z,101533.80
2023-09-25T04:08:14.024Z,101530.40
2023-09-25T04:10:48.497Z,101532.20
2023-09-25T04:13:24.208Z,101529.80
2023-09-25T04:15:59.623Z,101540.00
2023-09-25T04:18:33.986Z,101536.80
2023-09-25T04:21:08.561Z,101540.80
2023-09-25T04:23:43.192Z,101543.20
2023-09-25T04:26:17.513Z,101548.60
2023-09-25T04:28:52.352Z,101548.00
2023-09-25T04:31:32.555Z,101552.60
2023-09-25T04:34:11.732Z,101549.20
2023-09-25T04:36:47.549Z,101550.60
2023-09-25T04:39:21.968Z,101550.80
2023-09-25T04:41:58.386Z,101549.60
2023-09-25T04:44:32.752Z,101551.00
2023-09-25T04:47:07.109Z,101548.20
2023-09-25T04:49:41.413Z,101551.00
2023-09-25T04:52:15.667Z,101555.20
2023-09-25T04:54:50.558Z,101555.60
2023-09-25T04:57:25.521Z,101555.80
2023-09-25T04:59:59.809Z,101557.20
2023-09-25T05:02:34.202Z,101556.20
2023-09-25T05:05:10.247Z,101557.20
2023-09-25T05:07:45.906Z,101553.20
2023-09-25T05:10:23.310Z,101552.20
2023-09-25T05:13:00.191Z,101550.40
2023-09-25T05:15:35.384Z,101546.20
2023-09-25T05:18:10.475Z,101546.80
2023-09-25T05:20:44.845Z,101542.40
2023-09-25T05:23:21.854Z,101543.00
2023-09-25T05:25:59.215Z,101544.60
2023-09-25T05:28:33.725Z,101539.20
2023-09-25T05:31:08.559Z,101532.80
2023-09-25T05:33:43.108Z,101531.60
2023-09-25T05:36:17.728Z,101526.00
2023-09-25T05:38:56.612Z,101537.00
2023-09-25T05:41:33.123Z,101532.00
2023-09-25T05:44:07.907Z,101531.00
2023-09-25T05:46:42.810Z,101533.80
2023-09-25T05:49:17.322Z,101531.40
2023-09-25T05:51:54.570Z,101533.60
2023-09-25T05:54:29.747Z,101537.40
2023-09-25T05:57:06.991Z,101540.20
2023-09-25T05:59:41.524Z,101534.40
2023-09-25T06:02:18.790Z,101535.20
2023-09-25T06:04:53.187Z,101533.00
2023-09-25T06:07:27.949Z,101535.00
2023-09-25T06:10:05.392Z,101533.00
2023-09-25T06:12:41.053Z,101537.20
2023-09-25T06:15:15.866Z,101539.80
2023-09-25T06:17:52.133Z,101533.80
2023-09-25T06:20:28.792Z,101533.60
2023-09-25T06:23:05.285Z,101536.00
2023-09-25T06:25:43.189Z,101530.20
2023-09-25T06:28:21.801Z,101529.40
2023-09-25T06:30:56.265Z,101525.20
2023-09-25T06:33:31.192Z,101521.80
2023-09-25T06:36:06.292Z,101525.00
2023-09-25T06:38:40.763Z,101523.40
2023-09-25T06:41:16.560Z,101523.40
2023-09-25T06:43:50.845Z,101524.80
2023-09-25T06:46:25.173Z,101525.40
2023-09-25T06:49:00.201Z,101519.40
2023-09-25T06:51:35.569Z,101524.00
2023-09-25T06:54:11.056Z,101524.00
2023-09-25T06:56:45.563Z,101523.60
2023-09-25T06:59:20.732Z,101531.20
2023-09-25T07:01:55.664Z,101530.20
2023-09-25T07:04:30.644Z,101533.40
2023-09-25T07:07:06.194Z,101532.00
2023-09-25T07:09:41.096Z,101536.80
2023-09-25T07:12:17.388Z,101535.00
2023-09-25T07:14:57.920Z,101532.20
2023-09-25T07:17:33.028Z,101536.00
2023-09-25T07:20:09.472Z,101541.60
2023-09-25T07:22:45.225Z,101543.80
2023-09-25T07:25:20.814Z,101537.20
2023-09-25T07:27:55.916Z,101538.80
2023-09-25T07:30:31.001Z,101543.00
2023-09-25T07:33:06.020Z,101544.20
2023-09-25T07:35:40.883Z,101541.60
2023-09-25T07:38:15.565Z,101543.40
2023-09-25T07:41:00.077Z,101538.40
2023-09-25T07:43:51.014Z,101533.60
2023-09-25T07:46:32.567Z,101531.20
2023-09-25T07:49:08.096Z,101531.20
2023-09-25T07:51:42.669Z,101530.00
2023-09-25T07:54:17.839Z,101529.40
2023-09-25T07:56:53.012Z,101535.00
2023-09-25T07:59:28.866Z,101536.80
2023-09-25T08:02:03.479Z,101536.60
2023-09-25T08:04:38.464Z,101536.00
2023-09-25T08:07:13.149Z,101530.60
2023-09-25T08:09:50.770Z,101530.60
2023-09-25T08:12:26.465Z,101525.80
2023-09-25T08:15:11.854Z,101529.80
2023-09-25T08:17:51.301Z,101530.20
2023-09-25T08:20:28.820Z,101523.40
2023-09-25T08:23:03.537Z,101519.80
2023-09-25T08:25:38.067Z,101516.00
2023-09-25T08:28:15.272Z,101517.00
2023-09-25T08:30:50.272Z,101511.20
2023-09-25T08:33:25.146Z,101517.00
2023-09-25T08:36:00.054Z,101516.20
2023-09-25T08:38:35.533Z,101514.80
2023-09-25T08:41:14.913Z,101502.40
2023-09-25T08:43:51.588Z,101497.20
2023-09-25T08:46:27.781Z,101499.80
2023-09-25T08:49:02.948Z,101497.00
2023-09-25T08:51:40.463Z,101496.20
2023-09-25T08:54:15.526Z,101485.60
2023-09-25T08:56:50.675Z,101476.40
2023-09-25T08:59:26.311Z,101481.80
2023-09-25T09:02:01.961Z,101480.00
2023-09-25T09:04:36.497Z,101478.60
2023-09-25T09:07:13.158Z,101474.00
2023-09-25T09:09:48.225Z,101482.40
2023-09-25T09:12:23.383Z,101476.80
2023-09-25T09:14:58.163Z,101473.40
2023-09-25T09:17:35.718Z,101472.00
2023-09-25T09:20:13.915Z,101474.80
2023-09-25T09:22:57.140Z,101472.20
2023-09-25T09:25:33.439Z,101468.60
2023-09-25T09:28:10.569Z,101462.40
2023-09-25T09:30:45.719Z,101453.20
2023-09-25T09:33:22.024Z,101452.40
2023-09-25T09:35:56.901Z,101455.60
2023-09-25T09:38:35.676Z,101446.00
2023-09-25T09:41:14.590Z,101448.20
2023-09-25T09:43:51.567Z,101447.60
2023-09-25T09:46:33.213Z,101453.00
2023-09-25T09:49:09.754Z,101449.20
2023-09-25T09:51:48.804Z,101451.00
2023-09-25T09:54:26.533Z,101455.60
2023-09-25T09:57:04.227Z,101454.00
2023-09-25T09:59:39.485Z,101448.20
2023-09-25T10:02:15.960Z,101454.00
2023-09-25T10:04:53.914Z,101454.00
2023-09-25T10:07:30.405Z,101447.80
2023-09-25T10:10:11.888Z,101444.80
2023-09-25T10:13:06.201Z,101448.20
2023-09-25T10:15:56.303Z,101453.00
2023-09-25T10:18:33.394Z,101451.00
2023-09-25T10:21:16.016Z,101442.60
2023-09-25T10:23:55.695Z,101448.20
2023-09-25T10:26:35.131Z,101443.80
2023-09-25T10:29:20.194Z,101437.40
2023-09-25T10:31:55.506Z,101441.40
2023-09-25T10:34:30.989Z,101442.60
2023-09-25T10:37:06.697Z,101441.20
2023-09-25T10:39:41.551Z,101440.80
2023-09-25T10:42:18.112Z,101446.40
2023-09-25T10:44:54.070Z,101448.40
2023-09-25T10:47:33.800Z,101452.40
2023-09-25T10:50:10.287Z,101446.60
2023-09-25T10:52:46.253Z,101447.00
2023-09-25T10:55:21.695Z,101445.00
2023-09-25T10:57:57.210Z,101443.00
2023-09-25T11:00:34.197Z,101444.40
2023-09-25T11:03:27.529Z,101438.60
2023-09-25T11:06:14.562Z,101446.20
2023-09-25T11:08:49.730Z,101449.00
2023-09-25T11:11:25.964Z,101444.20
2023-09-25T11:14:04.407Z,101441.80
2023-09-25T11:16:40.967Z,101449.00
2023-09-25T11:19:18.935Z,101446.20
2023-09-25T11:21:56.684Z,101444.20
2023-09-25T11:24:34.732Z,101451.20
2023-09-25T11:27:31.703Z,101446.20
2023-09-25T11:30:33.897Z,101438.60
2023-09-25T11:33:37.937Z,101437.20
2023-09-25T11:36:24.868Z,101432.00
2023-09-25T11:39:01.492Z,101421.20
2023-09-25T11:41:36.107Z,101420.60
2023-09-25T11:44:16.780Z,101425.40
2023-09-25T11:46:52.518Z,101420.80
2023-09-25T11:49:27.596Z,101423.40
2023-09-25T11:52:02.439Z,101422.80
2023-09-25T11:54:37.398Z,101425.20
2023-09-25T11:57:12.127Z,101415.20
2023-09-25T11:59:47.219Z,101413.60
2023-09-25T12:02:24.035Z,101416.20
2023-09-25T12:05:00.423Z,101416.60
2023-09-25T12:07:39.159Z,101419.80
2023-09-25T12:10:18.139Z,101413.00
2023-09-25T12:12:54.463Z,101412.80
2023-09-25T12:15:29.492Z,101413.40
2023-09-25T12:18:05.491Z,101418.60
2023-09-25T12:20:44.547Z,101414.00
2023-09-25T12:23:19.477Z,101414.40
2023-09-25T12:25:53.992Z,101418.80
2023-09-25T12:28:39.964Z,101418.80
2023-09-25T12:31:15.551Z,101417.80
2023-09-25T12:33:51.474Z,101421.40
2023-09-25T12:36:26.649Z,101422.40
2023-09-25T12:39:35.686Z,101417.80
2023-09-25T12:42:21.589Z,101418.80
2023-09-25T12:44:59.678Z,101416.00
2023-09-25T12:47:55.009Z,101413.40
2023-09-25T12:50:56.435Z,101412.20
2023-09-25T12:53:31.753Z,101410.60
2023-09-25T12:56:06.874Z,101411.80
2023-09-25T12:59:12.020Z,101415.20
2023-09-25T13:01:51.293Z,101413.40
2023-09-25T13:04:38.915Z,101413.80
2023-09-25T13:07:14.264Z,101413.40
2023-09-25T13:09:53.744Z,101419.00
2023-09-25T13:12:29.001Z,101422.40
2023-09-25T13:15:05.351Z,101427.80
2023-09-25T13:17:43.318Z,101425.00
2023-09-25T13:20:19.206Z,101426.40
2023-09-25T13:22:54.364Z,101428.80
2023-09-25T13:25:31.630Z,101420.80
2023-09-25T13:28:07.646Z,101423.20
2023-09-25T13:30:42.780Z,101424.60
2023-09-25T13:33:18.153Z,101420.60
2023-09-25T13:35:53.845Z,101421.20
2023-09-25T13:38:28.212Z,101420.20
2023-09-25T13:41:05.375Z,101419.40
2023-09-25T13:43:44.040Z,101422.60
2023-09-25T13:46:18.630Z,101420.40
2023-09-25T13:48:59.517Z,101419.80
2023-09-25T13:51:34.158Z,101423.60
2023-09-25T13:54:09.323Z,101422.00
2023-09-25T13:56:44.630Z,101418.20
2023-09-25T13:59:19.850Z,101419.20
2023-09-25T14:01:55.407Z,101418.60
2023-09-25T14:04:33.519Z,101418.40
2023-09-25T14:07:08.458Z,101418.20
2023-09-25T14:09:43.207Z,101420.60
2023-09-25T14:12:17.784Z,101420.00
2023-09-25T14:15:15.372Z,101423.40
2023-09-25T14:17:53.010Z,101421.80
2023-09-25T14:20:27.773Z,101424.80
2023-09-25T14:23:04.425Z,101425.00
2023-09-25T14:26:01.581Z,101427.00
2023-09-25T14:28:41.029Z,101428.60
2023-09-25T14:31:16.862Z,101433.60
2023-09-25T14:33:52.422Z,101433.80
2023-09-25T14:36:27.526Z,101426.20
2023-09-25T14:39:04.030Z,101428.20
2023-09-25T14:41:38.562Z,101436.40
2023-09-25T14:44:34.718Z,101428.60
2023-09-25T14:47:12.395Z,101434.00
2023-09-25T14:49:50.529Z,101428.60
2023-09-25T14:52:30.447Z,101435.80
2023-09-25T14:55:05.994Z,101437.00
2023-09-25T14:57:42.941Z,101430.20
2023-09-25T15:00:19.779Z,101426.60
2023-09-25T15:02:54.493Z,101432.80
2023-09-25T15:05:29.094Z,101430.80
2023-09-25T15:08:29.587Z,101430.40
2023-09-25T15:11:04.375Z,101426.80
2023-09-25T15:13:43.941Z,101430.80
2023-09-25T15:16:18.794Z,101429.00
2023-09-25T15:18:53.517Z,101427.40
2023-09-25T15:21:29.161Z,101431.00
2023-09-25T15:24:03.944Z,101422.60
2023-09-25T15:26:38.774Z,101420.80
2023-09-25T15:29:13.951Z,101419.00
2023-09-25T15:31:49.339Z,101410.00
2023-09-25T15:34:24.970Z,101409.00
2023-09-25T15:36:59.967Z,101402.60
2023-09-25T15:39:35.536Z,101403.60
2023-09-25T15:42:10.513Z,101402.00
2023-09-25T15:44:45.913Z,101402.60
2023-09-25T15:47:20.594Z,101396.40
2023-09-25T15:49:55.563Z,101399.80
2023-09-25T15:52:30.023Z,101401.00
2023-09-25T15:55:04.764Z,101405.40
2023-09-25T15:57:39.249Z,101401.40
2023-09-25T16:00:17.020Z,101403.00
2023-09-25T16:03:09.436Z,101402.80
2023-09-25T16:05:45.138Z,101399.80
2023-09-25T16:08:22.236Z,101399.40
2023-09-25T16:10:57.091Z,101398.00
2023-09-25T16:13:31.893Z,101399.80
2023-09-25T16:16:12.456Z,101399.00
2023-09-25T16:18:47.794Z,101398.80
2023-09-25T16:21:26.320Z,101396.60
2023-09-25T16:24:21.224Z,101404.00
2023-09-25T16:26:56.810Z,101401.00
2023-09-25T16:29:31.924Z,101400.20
2023-09-25T16:32:07.457Z,101400.60
2023-09-25T16:34:42.762Z,101400.80
2023-09-25T16:37:17.717Z,101399.40
2023-09-25T16:39:52.521Z,101406.00
2023-09-25T16:42:27.373Z,101405.20
2023-09-25T16:45:03.049Z,101401.40
2023-09-25T16:47:38.034Z,101402.40
2023-09-25T16:50:14.598Z,101403.40
2023-09-25T16:52:49.851Z,101404.40
2023-09-25T16:55:24.370Z,101405.80
2023-09-25T16:58:00.465Z,101400.80
2023-09-25T17:00:36.397Z,101406.00
2023-09-25T17:03:13.869Z,101401.60
2023-09-25T17:05:48.965Z,101401.80
2023-09-25T17:08:23.736Z,101401.00
2023-09-25T17:10:58.520Z,101407.40
2023-09-25T17:13:33.726Z,101407.20
2023-09-25T17:16:14.638Z,101411.00
2023-09-25T17:18:49.837Z,101404.00
2023-09-25T17:21:24.654Z,101405.00
2023-09-25T17:23:59.583Z,101409.00
2023-09-25T17:26:34.512Z,101404.60
2023-09-25T17:29:09.597Z,101403.40
2023-09-25T17:31:44.457Z,101408.80
2023-09-25T17:34:19.861Z,101413.40
2023-09-25T17:36:54.988Z,101406.40
2023-09-25T17:39:32.110Z,101411.20
2023-09-25T17:42:07.654Z,101413.60
2023-09-25T17:44:42.375Z,101414.60
2023-09-25T17:47:17.358Z,101415.40
2023-09-25T17:49:53.868Z,101413.00
2023-09-25T17:52:30.550Z,101414.40
2023-09-25T17:55:05.986Z,101411.60
2023-09-25T17:57:41.671Z,101416.80
2023-09-25T18:00:19.676Z,101415.40
2023-09-25T18:02:54.438Z,101420.40
2023-09-25T18:05:30.395Z,101424.40
2023-09-25T18:08:05.601Z,101419.40
2023-09-25T18:10:40.372Z,101426.00
2023-09-25T18:13:17.857Z,101425.60
2023-09-25T18:15:53.690Z,101424.20
2023-09-25T18:18:28.566Z,101424.20
2023-09-25T18:21:03.760Z,101423.00
2023-09-25T18:23:39.404Z,101419.60
2023-09-25T18:26:14.470Z,101425.80
2023-09-25T18:28:49.375Z,101422.80
2023-09-25T18:31:24.359Z,101421.00
2023-09-25T18:33:59.307Z,101426.20
2023-09-25T18:36:33.969Z,101423.20
2023-09-25T18:39:09.587Z,101427.20
2023-09-25T18:41:44.462Z,101421.80
2023-09-25T18:44:22.552Z,101419.20
2023-09-25T18:46:57.467Z,101419.00
2023-09-25T18:49:31.998Z,101425.80
2023-09-25T18:52:06.866Z,101425.20
2023-09-25T18:54:41.576Z,101417.40
2023-09-25T18:57:18.438Z,101419.20
2023-09-25T18:59:53.927Z,101420.40
2023-09-25T19:02:30.389Z,101418.80
2023-09-25T19:05:06.337Z,101415.00
2023-09-25T19:07:42.534Z,101417.40
2023-09-25T19:10:17.658Z,101419.40
2023-09-25T19:12:53.475Z,101421.60
2023-09-25T19:15:28.272Z,101420.80
2023-09-25T19:18:03.110Z,101419.20
2023-09-25T19:20:37.789Z,101415.60
2023-09-25T19:23:13.280Z,101418.20
2023-09-25T19:25:49.252Z,101417.40
2023-09-25T19:28:24.834Z,101417.40
2023-09-25T19:30:59.684Z,101417.00
2023-09-25T19:33:54.452Z,101417.40
2023-09-25T19:36:29.267Z,101421.80
2023-09-25T19:39:04.422Z,101415.80
2023-09-25T19:41:40.127Z,101417.60
2023-09-25T19:44:15.838Z,101417.40
2023-09-25T19:46:50.977Z,101416.00
2023-09-25T19:49:26.055Z,101416.40
2023-09-25T19:52:01.512Z,101415.00
2023-09-25T19:54:37.412Z,101420.60
2023-09-25T19:57:18.400Z,101418.60
2023-09-25T19:59:53.502Z,101413.40
2023-09-25T20:02:30.528Z,101412.00
2023-09-25T20:05:06.153Z,101413.20
2023-09-25T20:07:41.093Z,101408.40
2023-09-25T20:10:18.981Z,101408.00
2023-09-25T20:12:54.137Z,101403.60
2023-09-25T20:15:29.296Z,101408.40
2023-09-25T20:18:04.583Z,101408.40
2023-09-25T20:20:39.535Z,101405.20
2023-09-25T20:23:14.425Z,101405.20
2023-09-25T20:25:49.754Z,101409.60
2023-09-25T20:28:25.037Z,101403.40
2023-09-25T20:30:59.991Z,101400.40
2023-09-25T20:33:34.964Z,101403.40
2023-09-25T20:36:11.961Z,101401.80
2023-09-25T20:38:47.956Z,101402.80
2023-09-25T20:41:23.731Z,101402.00
2023-09-25T20:43:59.420Z,101404.20
2023-09-25T20:46:34.695Z,101400.40
2023-09-25T20:49:09.783Z,101398.40
2023-09-25T20:51:45.046Z,101391.40
2023-09-25T20:54:20.208Z,101394.60
2023-09-25T20:56:56.029Z,101393.20
2023-09-25T20:59:31.031Z,101392.40
2023-09-25T21:02:06.833Z,101390.60
2023-09-25T21:04:42.114Z,101397.80
2023-09-25T21:07:17.120Z,101403.00
2023-09-25T21:09:51.952Z,101404.40
2023-09-25T21:12:27.775Z,101402.80
2023-09-25T21:15:03.151Z,101406.40
2023-09-25T21:17:38.339Z,101408.00
2023-09-25T21:20:15.658Z,101411.00
2023-09-25T21:22:50.248Z,101408.00
2023-09-25T21:25:24.828Z,101409.00
2023-09-25T21:28:00.073Z,101401.20
2023-09-25T21:30:34.783Z,101400.40
2023-09-25T21:33:09.901Z,101396.20
2023-09-25T21:35:45.420Z,101394.20
2023-09-25T21:38:19.885Z,101398.80
2023-09-25T21:40:54.960Z,101399.80
2023-09-25T21:43:29.667Z,101395.00
2023-09-25T21:46:04.871Z,101399.40
2023-09-25T21:48:39.956Z,101396.60
2023-09-25T21:51:14.828Z,101398.60
2023-09-25T21:53:49.631Z,101390.40
2023-09-25T21:56:24.296Z,101395.60
2023-09-25T21:58:59.131Z,101390.60
2023-09-25T22:01:33.939Z,101391.80
2023-09-25T22:04:11.053Z,101393.20
2023-09-25T22:06:45.667Z,101386.20
2023-09-25T22:09:21.830Z,101384.40
2023-09-25T22:11:56.425Z,101383.40
2023-09-25T22:14:33.104Z,101376.80
2023-09-25T22:17:07.896Z,101377.60
2023-09-25T22:19:42.585Z,101376.20
2023-09-25T22:22:17.275Z,101376.20
2023-09-25T22:24:52.075Z,101379.80
2023-09-25T22:27:27.019Z,101383.80
2023-09-25T22:30:01.792Z,101383.60
2023-09-25T22:32:37.277Z,101373.40
2023-09-25T22:35:13.674Z,101373.40
2023-09-25T22:38:08.051Z,101369.80
2023-09-25T22:40:44.129Z,101376.60
2023-09-25T22:43:18.684Z,101370.00
2023-09-25T22:45:53.443Z,101372.20
2023-09-25T22:48:28.279Z,101365.00
2023-09-25T22:51:02.991Z,101365.00
2023-09-25T22:53:37.688Z,101364.40
2023-09-25T22:56:12.209Z,101363.00
2023-09-25T22:58:46.818Z,101364.80
2023-09-25T23:01:24.037Z,101363.00
2023-09-25T23:03:59.072Z,101368.20
2023-09-25T23:06:33.791Z,101368.20
2023-09-25T23:09:10.839Z,101366.60
2023-09-25T23:11:45.526Z,101366.80
2023-09-25T23:14:20.756Z,101366.20
2023-09-25T23:16:55.548Z,101366.00
2023-09-25T23:19:30.012Z,101365.60
2023-09-25T23:22:04.521Z,101368.60
2023-09-25T23:24:39.176Z,101365.00
2023-09-25T23:27:13.745Z,101359.00
2023-09-25T23:29:48.521Z,101360.00
2023-09-25T23:32:22.992Z,101353.00
2023-09-25T23:34:57.754Z,101356.00
2023-09-25T23:37:32.331Z,101356.20
2023-09-25T23:40:12.230Z,101357.60
2023-09-25T23:42:47.751Z,101357.40
2023-09-25T23:45:24.230Z,101359.80
2023-09-25T23:47:59.398Z,101367.20
2023-09-25T23:50:33.962Z,101366.40
2023-09-25T23:53:08.786Z,101356.80
2023-09-25T23:55:43.230Z,101353.60
2023-09-25T23:58:17.871Z,101358.00
